Time;durP1;ratioP1;P1;durP2;ratioP2;P2;SDS_P1;SDS_P2;PMS_P1;PMS_P2;Temp;Humidity;BMP_temperature;BMP_pressure;BME280_temperature;BME280_humidity;BME280_pressure;Samples;Min_cycle;Max_cycle;Signal;HPM_P1;HPM_P2
2022/01/03 00:01:49;;;;;;;3.67;2.37;;;;;;;7.60;68.82;99348.72;4952137;29;20232;-80
2022/01/03 00:04:40;;;;;;;3.90;3.23;;;;;;;7.70;69.23;99341.91;4954693;29;20284;-79
2022/01/03 00:07:12;;;;;;;4.97;3.10;;;;;;;7.75;68.35;99334.13;4968791;29;20240;-80
2022/01/03 00:09:42;;;;;;;4.93;3.10;;;;;;;7.77;69.18;99332.06;4951989;29;20244;-80
2022/01/03 00:12:27;;;;;;;4.77;3.30;;;;;;;7.67;68.93;99321.03;4950800;29;20228;-79
2022/01/03 00:14:58;;;;;;;5.60;3.30;;;;;;;7.68;68.76;99324.50;5056005;23;20209;-80
2022/01/03 00:17:53;;;;;;;4.00;3.00;;;;;;;7.64;68.72;99309.97;4948694;29;20247;-79
2022/01/03 00:20:27;;;;;;;3.63;3.03;;;;;;;7.71;69.11;99321.41;4948990;29;20298;-80
2022/01/03 00:23:22;;;;;;;3.93;2.37;;;;;;;7.84;68.02;99306.19;4946737;29;20221;-80
2022/01/03 00:25:51;;;;;;;3.17;2.00;;;;;;;8.08;66.76;99312.69;4932291;29;20216;-80
2022/01/03 00:28:24;;;;;;;3.10;1.90;;;;;;;8.35;65.58;99295.56;4933748;29;20221;-80
2022/01/03 00:31:15;;;;;;;3.33;1.90;;;;;;;8.63;64.04;99284.50;4932393;29;20245;-79
2022/01/03 00:33:54;;;;;;;3.20;1.97;;;;;;;8.91;63.21;99288.66;4933609;29;20296;-80
2022/01/03 00:36:28;;;;;;;2.57;1.73;;;;;;;9.11;62.20;99303.47;4973666;23;20235;-80
2022/01/03 00:39:00;;;;;;;2.27;1.80;;;;;;;9.51;59.96;99287.09;4951200;29;20289;-79
2022/01/03 00:41:42;;;;;;;3.83;2.10;;;;;;;9.80;59.30;99285.56;4952421;29;20232;-80
2022/01/03 00:44:12;;;;;;;2.07;1.70;;;;;;;10.04;58.28;99308.75;4949264;29;20234;-79
2022/01/03 00:46:45;;;;;;;2.63;1.47;;;;;;;10.18;57.85;99312.09;4968006;29;20201;-80
2022/01/03 00:49:40;;;;;;;2.10;1.60;;;;;;;10.69;56.00;99292.88;4951311;29;20243;-80
2022/01/03 00:52:14;;;;;;;2.40;1.53;;;;;;;10.95;55.21;99292.50;5056695;23;20249;-80
2022/01/03 00:54:42;;;;;;;3.37;1.80;;;;;;;11.21;54.21;99299.28;4932616;29;20224;-80
2022/01/03 00:57:23;;;;;;;1.90;1.53;;;;;;;11.26;53.86;99297.56;4975417;23;20216;-80
2022/01/03 01:00:04;;;;;;;4.40;1.67;;;;;;;11.69;52.63;99299.91;4976187;23;20232;-80
2022/01/03 01:03:09;;;;;;;2.03;1.60;;;;;;;11.83;51.84;99297.81;4953850;29;20213;-80
2022/01/03 01:05:47;;;;;;;2.77;1.60;;;;;;;12.05;51.29;99306.06;4970340;29;20292;-80
2022/01/03 01:08:23;;;;;;;3.07;1.80;;;;;;;12.21;50.76;99287.34;4974131;23;20216;-79
2022/01/03 01:10:57;;;;;;;2.67;1.93;;;;;;;12.34;50.62;99283.56;4949520;29;20713;-80
2022/01/03 01:13:48;;;;;;;3.23;1.70;;;;;;;12.38;50.31;99282.03;4936428;29;20174;-80
2022/01/03 01:16:18;;;;;;;2.00;1.80;;;;;;;12.28;50.69;99279.97;4944184;23;20244;-79
2022/01/03 01:18:51;;;;;;;3.20;1.70;;;;;;;12.35;50.69;99280.66;4955685;29;20288;-79
2022/01/03 01:21:31;;;;;;;2.93;1.70;;;;;;;12.38;50.55;99283.91;4939503;29;20264;-80
2022/01/03 01:25:11;;;;;;;2.03;1.33;;;;;;;12.42;50.14;99282.34;4958046;29;20330;-80
2022/01/03 01:27:49;;;;;;;5.13;1.80;;;;;;;12.57;49.81;99278.09;4940289;29;20319;-79
2022/01/03 01:30:49;;;;;;;2.03;1.77;;;;;;;12.44;49.59;99281.06;4971122;29;20181;-80
2022/01/03 01:33:46;;;;;;;3.03;1.50;;;;;;;12.55;49.36;99282.09;4970615;29;20221;-80
2022/01/03 01:36:21;;;;;;;1.83;1.60;;;;;;;12.72;48.92;99275.69;4940665;29;20295;-80
2022/01/03 01:38:51;;;;;;;3.20;1.63;;;;;;;12.81;48.60;99276.09;4974867;23;20228;-80
2022/01/03 01:41:23;;;;;;;2.13;1.70;;;;;;;12.85;48.71;99253.06;4953504;29;20228;-80
2022/01/03 01:44:01;;;;;;;2.40;1.60;;;;;;;13.00;48.31;99274.00;4935583;29;20528;-79
2022/01/03 01:46:34;;;;;;;1.90;1.50;;;;;;;13.28;47.18;99267.75;4952978;29;20237;-80
2022/01/03 01:49:15;;;;;;;2.30;1.70;;;;;;;13.03;48.07;99257.38;4962074;23;20223;-79
2022/01/03 01:51:49;;;;;;;1.77;1.40;;;;;;;13.06;48.20;99259.59;4899450;29;20269;-80
2022/01/03 01:54:17;;;;;;;2.77;1.60;;;;;;;13.03;47.75;99252.81;4913876;29;20223;-80
2022/01/03 01:57:10;;;;;;;3.00;1.60;;;;;;;13.03;48.09;99252.81;4899936;29;20265;-80
2022/01/03 02:00:18;;;;;;;1.63;1.30;;;;;;;13.30;46.94;99262.97;4919091;29;20218;-80
2022/01/03 02:03:25;;;;;;;2.20;1.60;;;;;;;13.29;47.08;99248.69;4946319;23;20257;-80
2022/01/03 02:06:13;;;;;;;2.23;1.70;;;;;;;13.19;47.61;99235.09;4939739;23;20234;-80
2022/01/03 02:09:04;;;;;;;2.10;1.50;;;;;;;13.34;46.73;99239.88;4938650;29;20499;-80
2022/01/03 02:11:51;;;;;;;2.60;1.50;;;;;;;13.35;46.66;99234.22;4954395;29;20276;-80
2022/01/03 02:14:41;;;;;;;1.93;1.40;;;;;;;13.53;45.67;99236.63;4955368;29;20229;-79
2022/01/03 02:17:17;;;;;;;1.87;1.50;;;;;;;13.42;45.67;99202.59;4979508;23;20511;-80
2022/01/03 02:20:12;;;;;;;2.40;1.37;;;;;;;13.55;45.89;99218.38;4957396;29;20257;-80
2022/01/03 02:22:49;;;;;;;3.03;1.30;;;;;;;13.61;45.64;99219.28;4981422;23;20252;-80
2022/01/03 02:25:26;;;;;;;1.70;1.40;;;;;;;13.55;45.81;99210.31;4958094;29;20232;-79
2022/01/03 02:28:20;;;;;;;2.23;1.40;;;;;;;13.79;45.20;99199.31;4987929;23;20233;-79
2022/01/03 02:30:55;;;;;;;1.93;1.20;;;;;;;13.69;45.30;99202.69;4968810;23;20311;-80
2022/01/03 02:33:27;;;;;;;2.27;1.20;;;;;;;13.89;45.20;99212.91;4945537;29;20177;-79
2022/01/03 02:35:57;;;;;;;1.57;1.10;;;;;;;13.60;45.45;99194.22;4944077;23;20241;-80
2022/01/03 02:38:32;;;;;;;2.30;1.27;;;;;;;13.71;45.87;99205.13;4925881;29;20229;-80
2022/01/03 02:41:06;;;;;;;1.10;0.97;;;;;;;13.89;44.94;99202.94;4924302;29;20221;-80
2022/01/03 02:43:34;;;;;;;1.67;1.10;;;;;;;13.80;45.08;99201.75;4939562;29;20232;-79
2022/01/03 02:46:17;;;;;;;1.97;1.10;;;;;;;13.89;44.65;99197.56;4937880;29;20229;-79
2022/01/03 02:48:44;;;;;;;1.17;1.07;;;;;;;14.08;44.37;99195.34;4940100;23;20226;-79
2022/01/03 02:51:13;;;;;;;1.20;1.07;;;;;;;14.16;43.35;99192.19;4938224;29;20608;-80
2022/01/03 02:53:43;;;;;;;1.37;0.90;;;;;;;14.17;43.88;99185.75;4938430;29;20185;-80
2022/01/03 02:56:13;;;;;;;2.27;1.20;;;;;;;14.33;43.45;99200.97;4923584;29;20192;-80
2022/01/03 02:59:02;;;;;;;1.27;0.90;;;;;;;14.34;43.80;99181.06;4954350;29;20281;-80
2022/01/03 03:01:52;;;;;;;3.17;0.90;;;;;;;14.54;43.14;99186.69;4958890;23;20229;-79
2022/01/03 03:05:01;;;;;;;3.37;1.00;;;;;;;14.46;43.38;99187.13;4945400;23;20276;-80
2022/01/03 03:07:30;;;;;;;2.03;1.10;;;;;;;14.40;43.56;99192.75;4945306;23;20225;-80
2022/01/03 03:10:20;;;;;;;1.50;1.00;;;;;;;14.53;43.22;99184.22;4952435;29;20250;-80
2022/01/03 03:12:58;;;;;;;1.17;0.90;;;;;;;14.52;42.98;99182.59;4957868;23;20229;-81
2022/01/03 03:15:29;;;;;;;2.40;0.90;;;;;;;14.45;42.95;99180.13;4906926;29;20230;-80
2022/01/03 03:17:56;;;;;;;1.63;0.90;;;;;;;14.51;43.30;99191.78;4908153;29;20227;-80
2022/01/03 03:20:26;;;;;;;1.23;0.90;;;;;;;14.50;43.55;99199.06;4937758;29;20254;-79
2022/01/03 03:23:01;;;;;;;1.80;1.10;;;;;;;14.37;44.00;99206.75;4951584;29;20232;-84
2022/01/03 03:25:33;;;;;;;1.33;0.90;;;;;;;14.30;44.16;99208.78;4914973;29;20297;-91
2022/01/03 03:28:11;;;;;;;2.13;1.33;;;;;;;14.17;44.45;99214.56;4907622;29;20231;-90
2022/01/03 03:30:47;;;;;;;1.20;1.00;;;;;;;13.98;44.73;99220.28;4907808;29;20320;-91
2022/01/03 03:33:29;;;;;;;1.40;1.20;;;;;;;13.78;45.53;99213.81;4893960;29;20239;-89
2022/01/03 03:36:00;;;;;;;1.37;1.00;;;;;;;13.67;45.64;99218.25;4906889;29;20245;-91
2022/01/03 03:38:32;;;;;;;1.20;1.03;;;;;;;13.86;45.47;99210.69;4910329;29;20226;-83
2022/01/03 03:41:05;;;;;;;2.07;0.90;;;;;;;13.74;45.52;99189.28;4936981;29;20218;-80
2022/01/03 03:43:39;;;;;;;3.37;0.90;;;;;;;13.77;45.55;99196.03;4934042;29;20241;-81
2022/01/03 03:46:16;;;;;;;0.97;0.90;;;;;;;13.83;45.62;99206.63;4950266;29;20261;-81
2022/01/03 03:48:44;;;;;;;1.57;0.80;;;;;;;13.73;45.99;99203.81;4945302;29;20233;-85
2022/01/03 03:51:17;;;;;;;1.57;1.00;;;;;;;13.88;45.60;99189.72;4931717;29;20241;-80
2022/01/03 03:53:45;;;;;;;1.93;1.10;;;;;;;13.89;46.04;99199.44;4928055;23;20234;-80
2022/01/03 03:56:12;;;;;;;1.50;0.80;;;;;;;14.03;45.63;99192.59;4934715;29;20213;-82
2022/01/03 03:58:43;;;;;;;1.27;1.10;;;;;;;14.02;45.75;99182.88;4940991;23;20229;-80
2022/01/03 04:01:15;;;;;;;1.50;1.10;;;;;;;13.98;45.96;99185.28;4928913;23;20225;-80
2022/01/03 04:03:49;;;;;;;1.63;1.00;;;;;;;14.04;45.65;99186.16;4933652;29;20214;-80
2022/01/03 04:06:21;;;;;;;2.17;1.20;;;;;;;14.20;45.52;99205.97;4977225;23;1365449;-80
2022/01/03 04:08:54;;;;;;;1.53;1.10;;;;;;;14.23;45.48;99206.25;4917133;29;20235;-81
2022/01/03 04:11:21;;;;;;;2.33;0.80;;;;;;;14.24;45.58;99213.28;4916100;29;20237;-80
2022/01/03 04:13:50;;;;;;;2.13;0.93;;;;;;;14.25;46.14;99238.34;4931571;29;20225;-80
2022/01/03 04:16:17;;;;;;;2.27;1.00;;;;;;;14.30;45.88;99222.25;4947793;23;20244;-80
2022/01/03 04:18:48;;;;;;;1.80;0.90;;;;;;;14.24;46.09;99218.69;4933706;29;20668;-80
2022/01/03 04:21:17;;;;;;;1.10;0.90;;;;;;;14.21;46.26;99229.16;4932334;29;20327;-80
2022/01/03 04:23:49;;;;;;;1.33;1.00;;;;;;;14.24;46.08;99217.84;4931018;29;20212;-80
2022/01/03 04:26:15;;;;;;;1.63;1.07;;;;;;;14.11;46.38;99217.19;4933359;29;20559;-81
2022/01/03 04:28:42;;;;;;;1.77;1.00;;;;;;;14.34;46.22;99208.00;4916587;29;20221;-80
2022/01/03 04:31:11;;;;;;;2.07;0.93;;;;;;;14.23;46.01;99208.16;4934148;29;20233;-80
2022/01/03 04:33:42;;;;;;;1.70;0.90;;;;;;;14.21;46.49;99227.28;4915880;29;20540;-81
2022/01/03 04:36:10;;;;;;;1.93;1.10;;;;;;;14.11;46.84;99203.72;4915395;29;20237;-80
2022/01/03 04:38:37;;;;;;;1.00;0.70;;;;;;;14.11;46.46;99192.94;4915463;29;20659;-80
2022/01/03 04:41:06;;;;;;;1.17;0.70;;;;;;;14.14;46.30;99204.31;4917954;29;20227;-80
2022/01/03 04:43:33;;;;;;;2.37;1.30;;;;;;;14.23;46.53;99214.34;4900756;29;20733;-80
2022/01/03 04:46:02;;;;;;;1.60;0.90;;;;;;;14.39;46.13;99216.19;4932554;29;20248;-80
2022/01/03 04:48:32;;;;;;;2.50;0.90;;;;;;;14.25;46.46;99214.91;4931540;29;20281;-80
2022/01/03 04:51:00;;;;;;;2.13;0.93;;;;;;;14.24;46.37;99231.31;4942061;23;20234;-81
2022/01/03 04:53:33;;;;;;;1.53;1.00;;;;;;;14.23;46.40;99227.03;4946907;29;20257;-80
2022/01/03 04:56:05;;;;;;;2.10;1.10;;;;;;;14.01;47.30;99218.94;4956771;23;20240;-80
2022/01/03 04:58:32;;;;;;;1.73;1.07;;;;;;;14.06;46.68;99205.53;4948073;29;20227;-80
2022/01/03 05:01:00;;;;;;;2.83;0.90;;;;;;;14.07;46.59;99210.69;4938282;23;20320;-80
2022/01/03 05:03:32;;;;;;;1.97;1.00;;;;;;;13.99;47.06;99221.91;4947195;29;20233;-80
2022/01/03 05:06:04;;;;;;;1.83;1.00;;;;;;;14.03;46.79;99208.75;4950472;23;20268;-80
2022/01/03 05:08:46;;;;;;;1.10;0.80;;;;;;;13.95;46.63;99203.81;4905934;29;20221;-80
2022/01/03 05:11:27;;;;;;;2.20;0.90;;;;;;;13.89;46.41;99202.13;4931333;23;20233;-80
2022/01/03 05:13:54;;;;;;;2.67;1.00;;;;;;;14.00;45.68;99191.19;4930551;29;20224;-80
2022/01/03 05:16:21;;;;;;;2.13;0.73;;;;;;;14.13;45.72;99194.59;4952870;23;20299;-80
2022/01/03 05:18:48;;;;;;;1.87;0.90;;;;;;;14.15;45.00;99184.34;4940697;23;20240;-80
2022/01/03 05:21:15;;;;;;;1.63;0.80;;;;;;;14.13;45.52;99194.59;4914175;29;20198;-80
2022/01/03 05:23:45;;;;;;;2.80;0.90;;;;;;;14.18;45.40;99195.47;4905135;23;20289;-80
2022/01/03 05:26:14;;;;;;;2.60;0.73;;;;;;;14.00;45.80;99185.00;4929197;29;20236;-80
2022/01/03 05:28:41;;;;;;;1.93;0.90;;;;;;;14.12;45.73;99196.47;4911632;29;20240;-80
2022/01/03 05:31:09;;;;;;;1.40;0.67;;;;;;;14.09;45.75;99205.06;4933543;23;20570;-80
2022/01/03 05:33:36;;;;;;;1.50;0.60;;;;;;;14.19;45.32;99197.06;4901315;29;20229;-80
2022/01/03 05:36:03;;;;;;;2.10;0.80;;;;;;;14.26;44.85;99192.31;4933348;29;20284;-80
2022/01/03 05:38:31;;;;;;;1.10;0.60;;;;;;;14.13;45.03;99199.97;4946475;29;20232;-80
2022/01/03 05:40:59;;;;;;;1.47;0.80;;;;;;;14.13;45.14;99202.66;4922352;23;20580;-80
2022/01/03 05:43:30;;;;;;;1.43;0.70;;;;;;;14.26;44.80;99213.03;4918055;29;20597;-80
2022/01/03 05:46:02;;;;;;;1.70;0.90;;;;;;;14.20;45.08;99217.56;4930348;29;20539;-80
2022/01/03 05:48:31;;;;;;;1.93;0.90;;;;;;;14.12;45.17;99218.00;4929269;29;20233;-80
2022/01/03 05:50:59;;;;;;;4.13;0.90;;;;;;;14.01;45.21;99222.47;4943795;23;20230;-80
2022/01/03 05:53:26;;;;;;;1.13;0.80;;;;;;;14.10;44.87;99214.75;4947956;29;20301;-80
2022/01/03 05:55:59;;;;;;;2.20;0.97;;;;;;;14.13;45.27;99219.66;4929552;29;20316;-81
2022/01/03 05:58:29;;;;;;;2.45;0.90;;;;;;;14.10;44.61;99183.25;4932649;23;20473;-80
2022/01/03 06:00:59;;;;;;;2.13;0.90;;;;;;;14.09;44.93;99226.59;4896422;29;20290;-80
2022/01/03 06:03:33;;;;;;;1.83;0.90;;;;;;;13.99;45.46;99216.53;4910261;29;20211;-81
2022/01/03 06:08:38;;;;;;;2.00;0.90;;;;;;;13.97;45.04;99221.34;4911404;29;20287;-81
2022/01/03 06:11:08;;;;;;;2.43;0.70;;;;;;;13.93;45.24;99225.59;4909995;29;20638;-79
2022/01/03 06:13:36;;;;;;;1.97;0.73;;;;;;;14.04;44.62;99226.53;4896773;29;20243;-81
2022/01/03 06:16:08;;;;;;;2.37;1.10;;;;;;;13.97;45.06;99228.59;4898532;29;20195;-80
2022/01/03 06:18:38;;;;;;;1.77;0.83;;;;;;;13.83;45.26;99221.97;4895926;29;20214;-80
2022/01/03 06:21:07;;;;;;;2.50;0.80;;;;;;;14.05;44.38;99228.16;4895901;29;20272;-80
2022/01/03 06:23:43;;;;;;;1.00;0.60;;;;;;;13.99;44.85;99218.41;4896870;29;20234;-80
2022/01/03 06:26:10;;;;;;;0.83;0.70;;;;;;;13.95;44.92;99217.28;4895265;29;20674;-80
2022/01/03 06:28:41;;;;;;;2.50;0.90;;;;;;;13.93;44.87;99222.09;4897505;29;20520;-80
2022/01/03 06:31:31;;;;;;;2.47;1.00;;;;;;;14.01;44.10;99232.41;4975561;23;20228;-82
2022/01/03 06:34:06;;;;;;;1.97;0.80;;;;;;;14.05;44.87;99245.13;4957186;23;21079;-81
2022/01/03 06:36:34;;;;;;;1.77;0.90;;;;;;;14.01;44.19;99221.66;4917730;29;20225;-81
2022/01/03 06:39:07;;;;;;;2.17;0.60;;;;;;;14.02;44.86;99252.91;4918170;29;20720;-80
2022/01/03 06:41:35;;;;;;;2.17;0.80;;;;;;;13.94;45.11;99242.59;4916462;29;20352;-80
2022/01/03 06:44:17;;;;;;;2.23;0.73;;;;;;;13.99;45.45;99243.47;4931146;23;20257;-80
2022/01/03 06:46:43;;;;;;;1.50;0.90;;;;;;;13.94;45.30;99242.59;4897033;29;20229;-80
2022/01/03 06:49:12;;;;;;;3.83;1.03;;;;;;;13.84;45.52;99240.56;4899588;29;20321;-80
2022/01/03 06:51:41;;;;;;;3.43;0.90;;;;;;;13.90;45.30;99263.81;4883303;29;20244;-81
2022/01/03 06:54:15;;;;;;;3.93;1.20;;;;;;;13.95;45.08;99266.56;4898150;29;20234;-81
2022/01/03 06:56:49;;;;;;;2.13;0.70;;;;;;;13.95;45.53;99258.47;4918191;29;20202;-81
2022/01/03 06:59:18;;;;;;;1.30;0.67;;;;;;;13.95;45.52;99257.69;4933522;29;20198;-81
2022/01/03 07:01:45;;;;;;;3.33;0.80;;;;;;;13.83;45.65;99273.13;4898789;29;20244;-81
2022/01/03 07:04:13;;;;;;;2.50;0.90;;;;;;;13.84;45.78;99280.16;4924740;23;20234;-80
2022/01/03 07:06:43;;;;;;;1.37;0.70;;;;;;;13.78;45.89;99259.59;4939195;29;20237;-80
2022/01/03 07:09:11;;;;;;;1.93;0.90;;;;;;;13.83;45.70;99278.50;4938996;29;20236;-81
2022/01/03 07:11:37;;;;;;;2.67;0.97;;;;;;;13.79;46.39;99270.13;4968722;29;20233;-81
2022/01/03 07:19:54;;;;;;;1.60;0.90;;;;;;;13.73;46.30;99276.50;4953022;29;20225;-81
2022/01/03 07:22:23;;;;;;;1.77;1.13;;;;;;;13.82;46.67;99290.34;4951837;29;20319;-81
2022/01/03 07:25:14;;;;;;;3.30;0.80;;;;;;;13.77;46.43;99291.09;4952966;29;20205;-80
2022/01/03 07:27:51;;;;;;;3.43;1.00;;;;;;;13.82;46.68;99287.63;4954350;29;20320;-80
2022/01/03 07:30:18;;;;;;;1.87;1.00;;;;;;;13.69;46.76;99291.50;4959106;23;20226;-81
2022/01/03 07:32:53;;;;;;;1.63;0.80;;;;;;;13.79;47.08;99296.22;4941601;23;20237;-80
2022/01/03 07:35:28;;;;;;;2.10;0.90;;;;;;;13.78;47.01;99290.03;4952644;29;20618;-81
2022/01/03 07:38:00;;;;;;;2.50;1.30;;;;;;;13.79;46.77;99302.44;4952131;29;20276;-80
2022/01/03 07:40:36;;;;;;;2.60;1.00;;;;;;;13.77;47.03;99298.34;4875239;29;20231;-81
2022/01/03 07:43:05;;;;;;;3.17;0.70;;;;;;;13.69;47.58;99294.22;4874759;29;20232;-80
2022/01/03 07:45:50;;;;;;;2.43;0.83;;;;;;;13.71;47.59;99296.66;4886724;29;20219;-80
2022/01/03 07:48:25;;;;;;;2.33;0.70;;;;;;;13.66;48.04;99297.41;4873256;29;20653;-80
2022/01/03 07:51:06;;;;;;;2.07;0.90;;;;;;;13.66;47.98;99290.16;4874284;29;20240;-80
2022/01/03 07:53:37;;;;;;;1.80;0.90;;;;;;;13.75;47.91;99287.03;4875433;29;20240;-81
2022/01/03 07:56:20;;;;;;;3.33;1.10;;;;;;;13.56;48.10;99292.69;4874284;29;20212;-81
2022/01/03 07:58:49;;;;;;;2.63;1.33;;;;;;;13.68;48.07;99290.69;4872171;29;20256;-81
2022/01/03 08:01:19;;;;;;;1.70;0.77;;;;;;;13.69;48.22;99283.44;4870060;29;20225;-80
2022/01/03 08:03:52;;;;;;;2.27;0.80;;;;;;;13.56;49.00;99286.47;4866932;29;20224;-81
2022/01/03 08:06:39;;;;;;;2.07;0.80;;;;;;;13.53;48.89;99279.69;4871664;29;20228;-81
2022/01/03 08:09:06;;;;;;;2.60;0.90;;;;;;;13.52;49.34;99278.09;4872863;29;20212;-81
2022/01/03 08:11:33;;;;;;;1.93;0.90;;;;;;;13.56;49.09;99279.22;4870825;29;20660;-81
2022/01/03 08:14:02;;;;;;;1.77;0.80;;;;;;;13.62;49.20;99290.88;4872150;29;20231;-81
2022/01/03 08:16:31;;;;;;;2.03;0.93;;;;;;;13.57;49.52;99283.56;4856936;29;20237;-80
2022/01/03 08:18:58;;;;;;;1.23;0.83;;;;;;;13.40;50.02;99269.28;4873573;29;20208;-81
2022/01/03 08:21:29;;;;;;;2.27;1.00;;;;;;;13.38;50.49;99273.31;4842368;29;20236;-81
2022/01/03 08:23:56;;;;;;;3.67;0.83;;;;;;;13.19;50.98;99280.81;4873293;29;20271;-81
2022/01/03 08:26:25;;;;;;;2.67;0.93;;;;;;;13.14;50.36;99267.28;4858036;29;20245;-81
2022/01/03 08:28:53;;;;;;;2.73;0.90;;;;;;;13.27;50.13;99266.94;4879597;23;20234;-81
2022/01/03 08:31:26;;;;;;;1.97;0.97;;;;;;;13.29;50.14;99272.09;4928092;23;20318;-81
2022/01/03 08:33:57;;;;;;;2.13;0.80;;;;;;;13.15;50.84;99293.13;4927699;23;20223;-80
2022/01/03 08:36:25;;;;;;;2.37;1.10;;;;;;;13.12;50.78;99280.97;4893289;29;20238;-81
2022/01/03 08:38:54;;;;;;;3.43;1.23;;;;;;;13.09;51.23;99291.38;4911413;29;20215;-81
2022/01/03 08:41:21;;;;;;;2.47;1.00;;;;;;;13.03;50.93;99285.09;4913894;29;20222;-80
2022/01/03 08:43:51;;;;;;;3.70;1.00;;;;;;;13.21;50.86;99292.94;4913294;29;20687;-81
2022/01/03 08:46:19;;;;;;;2.17;1.10;;;;;;;13.17;51.23;99309.81;4909016;29;20255;-81
2022/01/03 08:48:48;;;;;;;2.77;0.80;;;;;;;13.08;51.15;99300.50;4910462;29;20317;-81
2022/01/03 08:51:15;;;;;;;2.03;1.00;;;;;;;13.04;51.64;99302.03;4896583;29;20247;-80
2022/01/03 08:53:46;;;;;;;0.93;0.77;;;;;;;12.93;52.12;99305.59;4902133;29;20221;-81
2022/01/03 08:56:15;;;;;;;2.70;1.20;;;;;;;12.98;52.44;99311.88;4907609;29;20638;-81
2022/01/03 08:58:43;;;;;;;2.70;1.00;;;;;;;13.26;51.81;99313.72;4953689;23;20228;-81
2022/01/03 09:01:15;;;;;;;3.03;0.97;;;;;;;13.26;51.72;99316.41;4911152;29;20277;-80
2022/01/03 09:03:42;;;;;;;3.37;1.20;;;;;;;13.20;51.61;99307.44;4949519;29;20629;-80
2022/01/03 09:06:11;;;;;;;2.50;1.27;;;;;;;13.42;51.56;99318.31;4916066;29;20236;-80
2022/01/03 09:08:38;;;;;;;4.67;1.27;;;;;;;13.56;50.77;99316.91;4932708;29;20225;-81
2022/01/03 09:11:12;;;;;;;3.07;1.30;;;;;;;13.71;50.83;99319.03;4942224;29;20213;-80
2022/01/03 09:13:39;;;;;;;2.33;1.03;;;;;;;13.68;50.63;99319.50;4918822;29;20228;-81
2022/01/03 09:16:21;;;;;;;2.10;1.00;;;;;;;13.88;50.36;99318.97;4941270;29;20248;-81
2022/01/03 09:18:50;;;;;;;3.70;0.97;;;;;;;13.76;50.83;99315.59;4962142;29;20281;-80
2022/01/03 09:21:34;;;;;;;2.87;1.10;;;;;;;13.68;50.84;99323.00;4947993;29;20190;-80
2022/01/03 09:24:31;;;;;;;2.63;1.03;;;;;;;13.71;50.75;99327.09;4953899;29;20304;-80
2022/01/03 09:30:04;;;;;;;1.40;1.03;;;;;;;13.55;51.71;99322.53;4949629;23;20221;-80
2022/01/03 09:32:44;;;;;;;2.00;0.90;;;;;;;13.48;51.67;99311.13;4945772;29;20637;-80
2022/01/03 09:35:12;;;;;;;2.43;0.90;;;;;;;13.59;51.28;99296.75;4960171;23;20244;-82
2022/01/03 09:38:17;;;;;;;1.60;1.00;;;;;;;13.61;51.33;99313.47;4925523;29;20216;-79
2022/01/03 09:40:47;;;;;;;2.03;1.10;;;;;;;13.67;51.48;99307.09;4931060;29;20236;-81
2022/01/03 09:43:17;;;;;;;1.43;1.00;;;;;;;13.75;51.36;99303.19;4931332;29;20257;-80
2022/01/03 09:46:10;;;;;;;1.97;0.93;;;;;;;13.74;51.49;99305.06;4932187;29;20218;-80
2022/01/03 09:48:51;;;;;;;2.83;1.27;;;;;;;13.68;51.70;99295.25;4948318;29;20241;-80
2022/01/03 09:51:31;;;;;;;2.50;1.10;;;;;;;13.74;50.89;99285.38;4950090;29;20225;-81
2022/01/03 09:54:05;;;;;;;2.17;0.80;;;;;;;13.94;51.09;99285.66;4948427;29;20229;-81
2022/01/03 09:56:36;;;;;;;2.63;1.23;;;;;;;13.92;50.86;99277.81;4915957;29;20253;-80
2022/01/03 09:59:06;;;;;;;2.47;1.20;;;;;;;14.16;50.52;99286.47;4929805;29;20232;-81
2022/01/03 10:01:37;;;;;;;1.63;1.00;;;;;;;14.06;50.46;99257.53;4933586;29;20225;-81
2022/01/03 10:04:09;;;;;;;3.13;1.00;;;;;;;14.07;50.32;99259.19;4926016;23;20202;-80
2022/01/03 10:06:45;;;;;;;1.77;0.87;;;;;;;14.31;49.65;99280.47;4935104;29;20214;-81
2022/01/03 10:09:15;;;;;;;3.50;1.13;;;;;;;14.36;49.79;99286.75;4949614;29;20230;-81
2022/01/03 10:11:42;;;;;;;4.23;1.20;;;;;;;14.55;48.96;99276.47;4930854;29;20668;-80
2022/01/03 10:14:11;;;;;;;2.27;0.90;;;;;;;14.60;48.98;99273.81;4933484;29;20230;-80
2022/01/03 10:16:41;;;;;;;2.03;0.80;;;;;;;14.52;48.95;99283.16;4946875;29;20270;-81
2022/01/03 10:19:16;;;;;;;2.53;1.00;;;;;;;14.64;48.81;99280.31;4915417;29;20244;-81
2022/01/03 10:21:48;;;;;;;2.77;1.17;;;;;;;14.45;49.31;99279.03;4933218;23;20230;-81
2022/01/03 10:24:20;;;;;;;2.90;0.97;;;;;;;14.19;48.92;99285.16;4928091;29;20244;-80
2022/01/03 10:26:54;;;;;;;2.97;1.00;;;;;;;14.08;49.76;99254.59;4941128;23;20228;-80
2022/01/03 10:29:41;;;;;;;4.03;0.97;;;;;;;13.91;50.21;99265.44;4951391;29;20238;-80
2022/01/03 10:32:12;;;;;;;2.17;0.90;;;;;;;13.98;50.11;99266.06;4923203;29;20213;-80
2022/01/03 10:34:45;;;;;;;1.83;0.83;;;;;;;13.93;49.98;99239.06;4969090;23;20241;-80
2022/01/03 10:37:14;;;;;;;2.23;0.90;;;;;;;13.99;50.05;99258.81;4957924;23;20233;-80
2022/01/03 10:39:46;;;;;;;2.17;0.97;;;;;;;13.89;50.50;99239.81;4934770;29;20229;-80
2022/01/03 10:42:19;;;;;;;1.77;0.90;;;;;;;13.96;50.56;99243.94;4951549;29;20249;-80
2022/01/03 10:44:48;;;;;;;2.07;0.90;;;;;;;13.95;50.11;99239.63;4912514;23;20233;-80
2022/01/03 10:47:34;;;;;;;3.90;1.00;;;;;;;14.00;50.16;99258.53;4932507;29;20222;-80
2022/01/03 10:50:20;;;;;;;3.70;0.93;;;;;;;14.00;50.32;99236.97;4929301;29;20234;-81
2022/01/03 10:52:48;;;;;;;1.80;0.90;;;;;;;13.82;51.20;99236.47;4917594;29;20174;-80
2022/01/03 10:55:33;;;;;;;3.03;0.90;;;;;;;13.84;50.24;99250.53;4884312;29;20237;-79
2022/01/03 10:58:09;;;;;;;1.83;0.87;;;;;;;13.69;50.77;99232.28;4929305;29;20541;-80
2022/01/03 11:00:46;;;;;;;2.67;0.80;;;;;;;13.61;51.12;99240.81;4933372;29;20242;-81
2022/01/03 11:03:26;;;;;;;3.67;1.00;;;;;;;13.63;50.98;99236.78;4930179;29;20260;-81
2022/01/03 11:11:41;;;;;;;1.17;0.70;;;;;;;13.47;51.86;99253.81;4921546;29;20238;-80
2022/01/03 11:14:30;;;;;;;1.90;0.73;;;;;;;13.39;52.22;99262.28;4901890;29;20520;-81
2022/01/03 11:17:24;;;;;;;2.43;0.83;;;;;;;13.33;52.77;99247.13;4916136;29;20218;-81
2022/01/03 11:19:57;;;;;;;3.00;0.90;;;;;;;13.39;52.81;99273.03;4913387;29;20297;-81
2022/01/03 11:22:43;;;;;;;2.13;0.70;;;;;;;13.33;53.44;99260.59;4951793;29;20579;-81
2022/01/03 11:25:12;;;;;;;1.63;0.60;;;;;;;13.18;53.82;99266.53;4955401;29;20605;-82
2022/01/03 11:27:40;;;;;;;1.07;0.60;;;;;;;12.92;54.58;99252.91;4934739;29;20241;-81
2022/01/03 11:30:20;;;;;;;3.30;0.80;;;;;;;12.91;54.70;99268.22;4927081;29;20265;-81
2022/01/03 11:32:49;;;;;;;1.90;0.70;;;;;;;12.71;55.69;99252.53;4939800;29;20213;-81
2022/01/03 11:35:19;;;;;;;1.37;0.70;;;;;;;12.86;55.76;99262.75;4903325;29;20257;-81
2022/01/03 11:37:48;;;;;;;1.73;0.70;;;;;;;12.78;56.75;99241.66;4935015;29;20233;-81
2022/01/03 11:40:17;;;;;;;2.80;1.00;;;;;;;12.88;56.30;99262.53;4946958;23;20236;-81
2022/01/03 11:42:48;;;;;;;1.93;0.70;;;;;;;12.88;58.03;99249.06;4931167;29;20194;-80
2022/01/03 11:45:22;;;;;;;1.47;0.60;;;;;;;12.87;57.81;99242.88;4930665;29;20264;-81
2022/01/03 11:48:10;;;;;;;1.90;0.70;;;;;;;12.82;58.05;99263.47;4914163;29;20233;-81
2022/01/03 11:50:39;;;;;;;0.80;0.50;;;;;;;12.84;57.51;99264.03;4923410;23;20229;-81
2022/01/03 11:53:08;;;;;;;1.43;0.60;;;;;;;12.70;57.44;99287.72;4903134;29;20234;-81
2022/01/03 11:55:36;;;;;;;0.83;0.60;;;;;;;12.95;57.65;99268.53;4901040;29;20222;-81
2022/01/03 12:03:39;;;;;;;2.30;0.50;;;;;;;12.72;59.64;99231.88;4946986;29;20205;-80
2022/01/03 12:06:09;;;;;;;0.53;0.50;;;;;;;12.57;59.31;99213.59;4933597;23;20230;-81
2022/01/03 12:08:40;;;;;;;1.27;0.30;;;;;;;12.52;58.02;99208.13;4895775;29;20230;-81
2022/01/03 12:11:20;;;;;;;0.30;0.30;;;;;;;12.48;58.10;99211.53;4948348;23;20297;-81
2022/01/03 12:13:51;;;;;;;0.80;0.40;;;;;;;12.51;58.37;99209.19;4934580;29;20232;-80
2022/01/03 12:16:37;;;;;;;0.97;0.40;;;;;;;12.49;58.44;99199.75;4938900;23;20233;-81
2022/01/03 12:19:12;;;;;;;0.83;0.50;;;;;;;12.53;57.41;99204.41;4933265;29;20261;-79
2022/01/03 12:21:48;;;;;;;0.70;0.50;;;;;;;12.52;57.95;99197.38;4930588;29;20281;-81
2022/01/03 12:24:27;;;;;;;0.80;0.60;;;;;;;12.58;57.28;99211.72;4948812;23;20229;-81
2022/01/03 12:27:28;;;;;;;1.13;0.60;;;;;;;12.64;56.57;99182.03;4968036;23;20232;-81
2022/01/03 12:32:36;;;;;;;1.57;0.80;;;;;;;12.52;56.56;99194.69;4891178;29;20236;-81
2022/01/03 12:35:13;;;;;;;2.10;0.70;;;;;;;12.58;56.74;99182.16;4890535;29;20231;-80